createdAt,value
2022-12-19T00:05:50.916Z,43.57
2022-12-19T00:08:18.587Z,43.72
2022-12-19T00:10:55.819Z,46.72
2022-12-19T00:13:23.399Z,47.00
2022-12-19T00:15:50.984Z,46.35
2022-12-19T00:18:18.706Z,45.20
2022-12-19T00:20:46.450Z,46.15
2022-12-19T00:23:15.334Z,48.97
2022-12-19T00:25:46.063Z,45.75
2022-12-19T00:28:14.769Z,42.42
2022-12-19T00:30:44.079Z,49.67
2022-12-19T00:33:11.746Z,47.40
2022-12-19T00:35:39.596Z,44.13
2022-12-19T00:38:07.339Z,43.97
2022-12-19T00:40:36.260Z,45.17
2022-12-19T00:43:04.174Z,45.38
2022-12-19T00:45:31.939Z,42.70
2022-12-19T00:48:00.445Z,47.97
2022-12-19T00:50:27.954Z,47.17
2022-12-19T00:52:55.396Z,46.55
2022-12-19T00:55:23.073Z,45.35
2022-12-19T00:57:52.547Z,43.60
2022-12-19T01:00:23.321Z,43.22
2022-12-19T01:02:51.082Z,47.72
2022-12-19T01:05:18.781Z,50.67
2022-12-19T01:07:46.275Z,50.70
2022-12-19T01:10:14.022Z,47.33
2022-12-19T01:12:46.640Z,51.83
2022-12-19T01:15:20.643Z,46.67
2022-12-19T01:17:48.893Z,46.57
2022-12-19T01:20:19.432Z,49.33
2022-12-19T01:22:54.212Z,49.45
2022-12-19T01:25:22.042Z,48.03
2022-12-19T01:27:49.653Z,47.03
2022-12-19T01:30:18.978Z,46.53
2022-12-19T01:32:47.591Z,42.03
2022-12-19T01:35:21.792Z,45.13
2022-12-19T01:37:50.181Z,44.67
2022-12-19T01:40:17.865Z,41.75
2022-12-19T01:42:45.557Z,48.25
2022-12-19T01:45:33.881Z,44.58
2022-12-19T01:48:15.988Z,45.17
2022-12-19T01:50:58.439Z,43.80
2022-12-19T01:53:33.205Z,44.70
2022-12-19T01:56:09.280Z,43.20
2022-12-19T01:58:39.412Z,45.67
2022-12-19T02:01:08.729Z,48.90
2022-12-19T02:03:38.490Z,42.00
2022-12-19T02:06:07.205Z,41.08
2022-12-19T02:08:36.038Z,46.95
2022-12-19T02:11:03.647Z,39.33
2022-12-19T02:13:31.561Z,41.37
2022-12-19T02:16:04.693Z,40.40
2022-12-19T02:18:40.889Z,44.35
2022-12-19T02:21:21.485Z,37.25
2022-12-19T02:24:15.469Z,44.42
2022-12-19T02:26:58.787Z,45.60
2022-12-19T02:30:09.066Z,38.85
2022-12-19T02:32:43.466Z,45.55
2022-12-19T02:35:15.617Z,41.83
2022-12-19T02:37:48.124Z,40.92
2022-12-19T02:40:21.383Z,42.28
2022-12-19T02:42:51.864Z,40.10
2022-12-19T02:45:26.987Z,42.30
2022-12-19T02:47:58.424Z,42.03
2022-12-19T02:50:37.418Z,40.65
2022-12-19T02:53:04.943Z,45.95
2022-12-19T02:55:36.252Z,44.22
2022-12-19T02:58:37.652Z,39.63
2022-12-19T03:01:13.990Z,38.83
2022-12-19T03:03:49.983Z,40.90
2022-12-19T03:06:23.687Z,40.03
2022-12-19T03:08:56.707Z,41.95
2022-12-19T03:11:28.510Z,42.70
2022-12-19T03:13:58.873Z,37.60
2022-12-19T03:16:26.696Z,41.70
2022-12-19T03:18:56.591Z,35.05
2022-12-19T03:21:27.404Z,42.50
2022-12-19T03:23:56.754Z,40.47
2022-12-19T03:26:26.854Z,38.67
2022-12-19T03:28:56.749Z,44.80
2022-12-19T03:31:26.362Z,37.60
2022-12-19T03:33:58.545Z,39.00
2022-12-19T03:36:29.917Z,37.85
2022-12-19T03:38:58.203Z,41.40
2022-12-19T03:41:40.271Z,40.93
2022-12-19T03:44:08.808Z,35.72
2022-12-19T03:46:39.865Z,35.42
2022-12-19T03:49:09.018Z,43.75
2022-12-19T03:51:42.699Z,38.38
2022-12-19T03:54:14.416Z,42.03
2022-12-19T03:56:47.825Z,39.78
2022-12-19T03:59:19.256Z,35.57
2022-12-19T04:01:47.731Z,40.63
2022-12-19T04:04:17.144Z,38.37
2022-12-19T04:06:45.202Z,38.72
2022-12-19T04:09:16.754Z,38.60
2022-12-19T04:11:52.405Z,40.20
2022-12-19T04:14:23.444Z,41.08
2022-12-19T04:16:57.218Z,37.45
2022-12-19T04:19:32.050Z,41.00
2022-12-19T04:22:04.829Z,37.95
2022-12-19T04:24:35.863Z,41.00
2022-12-19T04:27:06.773Z,40.47
2022-12-19T04:29:36.836Z,36.90
2022-12-19T04:32:07.308Z,43.60
2022-12-19T04:34:40.197Z,40.35
2022-12-19T04:37:12.259Z,41.53
2022-12-19T04:39:40.085Z,40.28
2022-12-19T04:42:07.632Z,37.28
2022-12-19T04:44:35.166Z,37.55
2022-12-19T04:47:03.481Z,36.40
2022-12-19T04:49:31.242Z,41.17
2022-12-19T04:52:00.294Z,38.17
2022-12-19T04:54:28.330Z,35.78
2022-12-19T04:56:56.300Z,39.80
2022-12-19T04:59:24.756Z,35.08
2022-12-19T05:01:52.582Z,43.80
2022-12-19T05:04:20.429Z,38.22
2022-12-19T05:06:48.840Z,35.35
2022-12-19T05:09:17.774Z,35.70
2022-12-19T05:11:45.497Z,38.70
2022-12-19T05:14:13.368Z,43.07
2022-12-19T05:16:41.175Z,37.80
2022-12-19T05:19:09.607Z,35.00
2022-12-19T05:21:37.065Z,37.45
2022-12-19T05:24:05.339Z,37.67
2022-12-19T05:26:34.334Z,37.87
2022-12-19T05:29:02.836Z,40.13
2022-12-19T05:31:30.621Z,40.83
2022-12-19T05:33:58.174Z,37.28
2022-12-19T05:36:32.180Z,34.38
2022-12-19T05:39:00.245Z,41.45
2022-12-19T05:41:27.816Z,38.40
2022-12-19T05:43:57.146Z,37.20
2022-12-19T05:46:25.666Z,41.17
2022-12-19T05:48:53.405Z,40.13
2022-12-19T05:51:22.149Z,40.08
2022-12-19T05:53:50.044Z,37.93
2022-12-19T05:56:19.603Z,37.80
2022-12-19T05:58:47.830Z,44.25
2022-12-19T06:01:18.729Z,37.78
2022-12-19T06:03:46.366Z,43.08
2022-12-19T06:06:15.288Z,42.55
2022-12-19T06:08:43.383Z,37.72
2022-12-19T06:11:11.787Z,39.50
2022-12-19T06:13:39.922Z,46.50
2022-12-19T06:16:10.416Z,39.55
2022-12-19T06:18:45.211Z,34.58
2022-12-19T06:21:14.759Z,37.38
2022-12-19T06:23:43.275Z,33.38
2022-12-19T06:26:18.722Z,40.22
2022-12-19T06:28:48.067Z,30.35
2022-12-19T06:31:16.840Z,39.33
2022-12-19T06:33:45.697Z,41.93
2022-12-19T06:36:16.004Z,33.17
2022-12-19T06:38:43.576Z,30.85
2022-12-19T06:41:29.654Z,29.25
2022-12-19T06:43:59.256Z,25.37
2022-12-19T06:46:26.852Z,19.58
2022-12-19T06:48:55.785Z,12.10
2022-12-19T06:51:24.597Z,8.30
2022-12-19T06:53:53.644Z,5.65
2022-12-19T06:56:21.713Z,7.13
2022-12-19T06:58:50.035Z,2.47
2022-12-19T07:01:18.328Z,3.80
2022-12-19T07:03:48.182Z,3.60
2022-12-19T07:06:20.655Z,2.00
2022-12-19T07:08:48.907Z,1.70
2022-12-19T07:11:16.478Z,1.25
2022-12-19T07:13:44.079Z,0.60
2022-12-19T07:16:12.038Z,0.50
2022-12-19T07:18:40.969Z,0.50
2022-12-19T07:21:11.306Z,3.10
2022-12-19T07:23:40.844Z,0.35
2022-12-19T07:26:08.457Z,0.20
2022-12-19T07:28:36.611Z,0.17
2022-12-19T07:31:05.350Z,0.60
2022-12-19T07:33:33.716Z,0.87
2022-12-19T07:36:01.417Z,0.20
2022-12-19T07:38:29.740Z,0.20
2022-12-19T07:41:01.987Z,0.50
2022-12-19T07:43:30.633Z,0.80
2022-12-19T07:45:58.437Z,0.00
2022-12-19T07:48:28.884Z,1.40
2022-12-19T07:50:56.437Z,1.55
2022-12-19T07:53:24.029Z,0.00
2022-12-19T07:55:51.707Z,0.20
2022-12-19T07:58:20.781Z,0.15
2022-12-19T08:00:55.238Z,0.50
2022-12-19T08:03:23.049Z,0.55
2022-12-19T08:05:51.130Z,0.28
2022-12-19T08:08:19.094Z,0.20
2022-12-19T08:10:47.899Z,0.15
2022-12-19T08:13:15.730Z,0.10
2022-12-19T08:15:44.734Z,1.90
2022-12-19T08:18:12.599Z,0.50
2022-12-19T08:20:40.399Z,0.30
2022-12-19T08:23:08.376Z,0.35
2022-12-19T08:25:35.982Z,0.55
2022-12-19T08:28:03.810Z,0.50
2022-12-19T08:30:31.656Z,2.10
2022-12-19T08:33:00.768Z,0.03
2022-12-19T08:35:28.377Z,0.60
2022-12-19T08:37:56.222Z,0.55
2022-12-19T08:40:24.325Z,0.10
2022-12-19T08:42:52.395Z,1.10
2022-12-19T08:45:20.193Z,0.20
2022-12-19T08:47:48.235Z,1.00
2022-12-19T08:50:17.393Z,0.10
2022-12-19T08:52:44.993Z,0.20
2022-12-19T08:55:12.836Z,0.28
2022-12-19T08:57:40.590Z,5.88
2022-12-19T09:00:09.890Z,1.53
2022-12-19T09:02:38.747Z,0.60
2022-12-19T09:06:01.766Z,0.00
2022-12-19T09:08:00.916Z,0.05
2022-12-19T09:10:30.535Z,0.10
2022-12-19T09:12:58.322Z,0.10
2022-12-19T09:15:26.209Z,0.00
2022-12-19T09:17:54.861Z,0.20
2022-12-19T09:20:25.401Z,0.80
2022-12-19T09:22:55.351Z,1.60
2022-12-19T09:25:24.362Z,1.10
2022-12-19T09:28:25.932Z,0.40
2022-12-19T09:30:39.762Z,0.30
2022-12-19T09:33:07.545Z,4.28
2022-12-19T09:35:37.034Z,0.30
2022-12-19T09:38:04.864Z,0.55
2022-12-19T09:40:44.270Z,0.20
2022-12-19T09:43:22.103Z,0.88
2022-12-19T09:45:54.931Z,0.10
2022-12-19T09:48:24.266Z,0.68
2022-12-19T09:51:09.359Z,1.60
2022-12-19T09:53:45.913Z,0.00
2022-12-19T09:56:34.066Z,0.30
2022-12-19T09:59:15.377Z,0.45
2022-12-19T10:01:50.891Z,0.20
2022-12-19T10:04:20.047Z,0.90
2022-12-19T10:07:12.514Z,1.90
2022-12-19T10:11:29.162Z,1.70
2022-12-19T10:12:50.985Z,0.10
2022-12-19T10:15:24.828Z,0.77
2022-12-19T10:18:06.541Z,0.40
2022-12-19T10:20:37.167Z,0.28
2022-12-19T10:23:19.180Z,4.60
2022-12-19T10:25:53.102Z,2.30
2022-12-19T10:28:39.430Z,0.70
2022-12-19T10:31:21.472Z,0.13
2022-12-19T10:33:57.217Z,0.13
2022-12-19T10:36:48.801Z,0.60
2022-12-19T10:39:18.828Z,2.60
2022-12-19T10:41:47.772Z,0.70
2022-12-19T10:44:19.506Z,0.30
2022-12-19T10:46:49.862Z,1.20
2022-12-19T10:49:19.083Z,0.25
2022-12-19T10:51:54.854Z,4.50
2022-12-19T10:54:33.069Z,0.17
2022-12-19T10:57:19.386Z,0.10
2022-12-19T11:00:00.250Z,0.00
2022-12-19T11:02:35.530Z,0.03
2022-12-19T11:05:03.776Z,0.30
2022-12-19T11:07:31.756Z,0.10
2022-12-19T11:10:23.138Z,0.30
2022-12-19T11:18:14.375Z,0.10
2022-12-19T11:20:12.307Z,0.60
2022-12-19T11:27:03.788Z,0.80
2022-12-19T11:29:54.947Z,0.00
2022-12-19T11:30:09.509Z,0.15
2022-12-19T11:30:45.890Z,0.53
2022-12-19T11:33:16.857Z,0.25
2022-12-19T11:35:50.204Z,0.10
2022-12-19T11:38:21.745Z,0.30
2022-12-19T11:40:52.822Z,0.65
2022-12-19T11:43:43.944Z,1.50
2022-12-19T11:46:22.390Z,0.00
2022-12-19T11:48:56.164Z,0.10
2022-12-19T11:51:29.626Z,0.50
2022-12-19T11:54:02.183Z,0.00
2022-12-19T11:56:30.417Z,0.80
2022-12-19T11:59:02.025Z,1.50
2022-12-19T12:01:43.638Z,0.40
2022-12-19T12:04:34.044Z,0.30
2022-12-19T12:07:04.116Z,1.60
2022-12-19T12:12:55.099Z,0.30
2022-12-19T12:18:38.386Z,0.00
2022-12-19T12:28:34.979Z,0.50
2022-12-19T12:28:44.066Z,1.00
2022-12-19T12:31:21.282Z,0.10
2022-12-19T12:31:42.780Z,0.50
2022-12-19T12:31:45.831Z,0.60
2022-12-19T12:31:50.066Z,0.10
2022-12-19T12:35:30.229Z,1.20
2022-12-19T12:39:18.302Z,0.00
2022-12-19T12:42:05.796Z,4.28
2022-12-19T12:44:41.093Z,0.90
2022-12-19T12:47:16.963Z,1.30
2022-12-19T12:49:46.210Z,0.35
2022-12-19T12:52:16.756Z,2.10
2022-12-19T12:54:51.348Z,0.10
2022-12-19T12:57:21.964Z,0.40
2022-12-19T13:00:18.243Z,0.60
2022-12-19T13:02:48.097Z,0.00
2022-12-19T13:05:32.590Z,0.70
2022-12-19T13:08:00.271Z,0.00
2022-12-19T13:10:31.902Z,0.20
2022-12-19T13:13:02.730Z,0.00
2022-12-19T13:15:39.793Z,0.17
2022-12-19T13:18:15.968Z,0.32
2022-12-19T13:20:46.094Z,0.20
2022-12-19T13:23:49.931Z,0.00
2022-12-19T13:26:52.416Z,0.28
2022-12-19T13:29:31.731Z,0.03
2022-12-19T13:32:13.626Z,0.20
2022-12-19T13:34:48.808Z,0.15
2022-12-19T13:39:57.248Z,1.15
2022-12-19T13:40:32.584Z,3.58
2022-12-19T13:43:31.468Z,0.10
2022-12-19T13:46:01.440Z,1.65
2022-12-19T13:48:32.321Z,0.70
2022-12-19T13:51:01.939Z,0.50
2022-12-19T13:53:30.731Z,0.50
2022-12-19T13:56:01.954Z,11.13
2022-12-19T13:58:32.624Z,5.53
2022-12-19T14:04:41.929Z,0.10
2022-12-19T14:07:36.965Z,0.10
2022-12-19T14:11:30.980Z,0.50
2022-12-19T14:13:50.132Z,0.23
2022-12-19T14:16:01.274Z,0.40
2022-12-19T14:18:44.253Z,1.70
2022-12-19T14:22:03.940Z,0.10
2022-12-19T14:24:15.001Z,1.05
2022-12-19T14:28:21.002Z,0.10
2022-12-19T14:30:36.531Z,0.40
2022-12-19T14:33:39.271Z,0.00
2022-12-19T14:36:10.814Z,0.20
2022-12-19T14:39:26.753Z,0.40
2022-12-19T14:42:01.073Z,0.80
2022-12-19T14:54:02.605Z,0.00
2022-12-19T14:54:06.517Z,4.40
2022-12-19T14:54:27.811Z,3.20
2022-12-19T14:54:39.880Z,2.03
2022-12-19T14:59:00.619Z,1.60
2022-12-19T15:01:30.469Z,1.80
2022-12-19T15:04:49.128Z,0.90
2022-12-19T15:07:07.333Z,0.00
2022-12-19T15:11:04.925Z,1.20
2022-12-19T15:14:51.743Z,1.50
2022-12-19T15:15:59.199Z,1.30
2022-12-19T15:18:31.478Z,0.10
2022-12-19T15:21:01.458Z,5.10
2022-12-19T15:23:33.809Z,0.30
2022-12-19T15:26:05.230Z,0.63
2022-12-19T15:28:40.571Z,0.10
2022-12-19T15:31:15.078Z,0.00
2022-12-19T15:34:14.511Z,0.07
2022-12-19T15:36:31.779Z,0.30
2022-12-19T15:39:05.570Z,0.08
2022-12-19T15:41:33.442Z,0.50
2022-12-19T15:44:06.636Z,0.10
2022-12-19T15:46:35.894Z,3.20
2022-12-19T15:49:08.620Z,0.05
2022-12-19T15:51:37.445Z,0.00
2022-12-19T15:54:38.727Z,0.10
2022-12-19T15:56:56.922Z,0.52
2022-12-19T15:59:36.526Z,0.10
2022-12-19T16:02:16.917Z,0.20
2022-12-19T16:04:45.451Z,0.20
2022-12-19T16:07:16.781Z,0.60
2022-12-19T16:09:46.146Z,3.50
2022-12-19T16:12:16.717Z,0.15
2022-12-19T16:14:45.073Z,0.08
2022-12-19T16:17:15.597Z,0.10
2022-12-19T16:19:44.580Z,0.52
2022-12-19T16:22:18.711Z,0.30
2022-12-19T16:24:48.227Z,0.80
2022-12-19T16:27:21.696Z,0.00
2022-12-19T16:29:50.902Z,0.00
2022-12-19T16:32:22.937Z,0.00
2022-12-19T16:34:51.730Z,0.00
2022-12-19T16:37:20.315Z,0.10
2022-12-19T16:39:49.322Z,0.40
2022-12-19T16:42:18.360Z,0.20
2022-12-19T16:44:47.108Z,0.15
2022-12-19T16:47:17.727Z,0.00
2022-12-19T16:49:46.264Z,0.90
2022-12-19T16:52:14.124Z,0.20
2022-12-19T16:54:42.167Z,0.38
2022-12-19T16:57:19.616Z,1.30
2022-12-19T16:59:47.778Z,0.00
2022-12-19T17:02:36.773Z,0.50
2022-12-19T17:05:05.240Z,0.30
2022-12-19T17:07:33.235Z,0.60
2022-12-19T17:10:01.096Z,0.20
2022-12-19T17:12:31.027Z,1.00
2022-12-19T17:14:59.761Z,0.00
2022-12-19T17:17:28.308Z,0.80
2022-12-19T17:19:56.235Z,0.17
2022-12-19T17:22:24.109Z,0.30
2022-12-19T17:24:51.778Z,0.10
2022-12-19T17:27:21.004Z,0.00
2022-12-19T17:29:50.225Z,0.60
2022-12-19T17:32:23.965Z,0.90
2022-12-19T17:34:53.804Z,0.20
2022-12-19T17:37:23.056Z,0.10
2022-12-19T17:39:50.903Z,0.70
2022-12-19T17:42:22.614Z,0.10
2022-12-19T17:44:53.115Z,1.10
2022-12-19T17:47:21.559Z,0.70
2022-12-19T17:49:50.322Z,0.47
2022-12-19T17:52:20.114Z,0.10
2022-12-19T17:54:48.333Z,0.50
2022-12-19T17:57:17.322Z,0.32
2022-12-19T17:59:46.687Z,0.00
2022-12-19T18:02:29.973Z,0.10
2022-12-19T18:04:58.487Z,0.25
2022-12-19T18:07:26.770Z,0.00
2022-12-19T18:09:57.207Z,0.20
2022-12-19T18:12:25.299Z,0.10
2022-12-19T18:14:53.123Z,0.00
2022-12-19T18:17:24.352Z,1.10
2022-12-19T18:19:54.223Z,0.10
2022-12-19T18:22:22.191Z,0.20
2022-12-19T18:24:50.266Z,0.00
2022-12-19T18:27:18.979Z,2.13
2022-12-19T18:29:48.530Z,1.15
2022-12-19T18:32:19.052Z,0.08
2022-12-19T18:34:49.156Z,0.47
2022-12-19T18:37:18.798Z,0.10
2022-12-19T18:39:47.069Z,1.35
2022-12-19T18:42:20.759Z,0.55
2022-12-19T18:44:49.181Z,0.20
2022-12-19T18:47:21.141Z,0.20
2022-12-19T18:49:52.741Z,0.50
2022-12-19T18:52:21.635Z,0.20
2022-12-19T18:54:51.683Z,0.10
2022-12-19T18:57:20.303Z,1.10
2022-12-19T18:59:48.568Z,1.70
2022-12-19T19:02:25.861Z,7.23
2022-12-19T19:04:57.052Z,6.93
2022-12-19T19:07:24.879Z,10.00
2022-12-19T19:09:54.108Z,12.73
2022-12-19T19:12:22.603Z,12.75
2022-12-19T19:14:52.177Z,11.30
2022-12-19T19:17:25.888Z,12.65
2022-12-19T19:19:53.867Z,8.68
2022-12-19T19:22:23.392Z,10.23
2022-12-19T19:24:52.088Z,10.55
2022-12-19T19:27:19.854Z,11.75
2022-12-19T19:29:48.514Z,14.57
2022-12-19T19:32:16.865Z,11.18
2022-12-19T19:34:47.063Z,10.65
2022-12-19T19:37:16.224Z,9.02
2022-12-19T19:39:46.081Z,8.35
2022-12-19T19:42:14.872Z,11.15
2022-12-19T19:44:42.606Z,11.55
2022-12-19T19:47:10.566Z,11.35
2022-12-19T19:49:38.422Z,11.32
2022-12-19T19:52:06.465Z,11.23
2022-12-19T19:54:35.903Z,9.00
2022-12-19T19:57:05.526Z,10.43
2022-12-19T19:59:33.359Z,8.52
2022-12-19T20:02:03.352Z,10.57
2022-12-19T20:04:31.990Z,9.25
2022-12-19T20:06:59.974Z,9.10
2022-12-19T20:09:28.049Z,11.32
2022-12-19T20:11:56.767Z,12.55
2022-12-19T20:14:27.917Z,7.13
2022-12-19T20:16:56.759Z,11.52
2022-12-19T20:19:24.851Z,12.10
2022-12-19T20:21:53.082Z,7.87
2022-12-19T20:24:21.223Z,8.83
2022-12-19T20:26:49.173Z,10.27
2022-12-19T20:29:17.035Z,9.75
2022-12-19T20:31:48.698Z,7.20
2022-12-19T20:34:16.773Z,9.27
2022-12-19T20:36:46.804Z,8.35
2022-12-19T20:42:56.466Z,11.45
2022-12-19T20:45:24.505Z,8.98
2022-12-19T20:47:55.492Z,9.82
2022-12-19T20:50:25.165Z,6.50
2022-12-19T20:52:53.039Z,5.93
2022-12-19T20:55:21.519Z,7.40
2022-12-19T20:57:49.430Z,9.23
2022-12-19T21:04:02.252Z,9.63
2022-12-19T21:06:30.337Z,7.20
2022-12-19T21:08:58.908Z,9.65
2022-12-19T21:11:28.762Z,8.30
2022-12-19T21:13:57.562Z,10.20
2022-12-19T21:16:27.487Z,10.50
2022-12-19T21:18:56.163Z,6.93
2022-12-19T21:21:27.488Z,7.38
2022-12-19T21:23:56.245Z,7.80
2022-12-19T21:26:25.902Z,7.55
2022-12-19T21:28:53.886Z,9.07
2022-12-19T21:31:25.226Z,6.20
2022-12-19T21:33:55.418Z,7.23
2022-12-19T21:36:29.877Z,9.20
2022-12-19T21:39:00.499Z,5.73
2022-12-19T21:41:29.402Z,9.98
2022-12-19T21:43:57.539Z,7.72
2022-12-19T21:46:27.454Z,9.47
2022-12-19T21:48:57.390Z,9.23
2022-12-19T21:51:31.995Z,8.93
2022-12-19T21:54:01.666Z,7.57
2022-12-19T21:56:31.726Z,8.93
2022-12-19T21:59:01.908Z,8.73
2022-12-19T22:01:30.898Z,7.90
2022-12-19T22:04:00.544Z,9.73
2022-12-19T22:06:33.176Z,9.07
2022-12-19T22:09:02.229Z,9.27
2022-12-19T22:11:30.700Z,8.25
2022-12-19T22:14:00.167Z,8.55
2022-12-19T22:16:29.384Z,8.90
2022-12-19T22:22:39.526Z,9.00
2022-12-19T22:25:08.403Z,9.07
2022-12-19T22:27:36.279Z,8.48
2022-12-19T22:30:10.567Z,7.90
2022-12-19T22:32:39.913Z,8.27
2022-12-19T22:35:08.485Z,8.57
2022-12-19T22:37:36.925Z,10.63
2022-12-19T23:13:33.707Z,7.87
